createdAt,value
2023-03-05T00:01:36.014Z,-1.30
2023-03-05T00:04:05.087Z,-1.30
2023-03-05T00:06:33.424Z,-1.30
2023-03-05T00:09:00.616Z,-1.30
2023-03-05T00:11:30.324Z,-1.30
2023-03-05T00:14:51.131Z,-1.30
2023-03-05T00:17:18.839Z,-1.40
2023-03-05T00:19:46.021Z,-1.30
2023-03-05T00:22:13.142Z,-1.30
2023-03-05T00:24:40.382Z,-1.30
2023-03-05T00:27:07.532Z,-1.30
2023-03-05T00:29:34.515Z,-1.30
2023-03-05T00:32:01.849Z,-1.30
2023-03-05T00:34:29.705Z,-1.30
2023-03-05T00:36:56.781Z,-1.40
2023-03-05T00:39:23.923Z,-1.40
2023-03-05T00:41:51.365Z,-1.40
2023-03-05T00:44:18.727Z,-1.40
2023-03-05T00:46:45.994Z,-1.40
2023-03-05T00:49:13.041Z,-1.40
2023-03-05T00:51:41.082Z,-1.40
2023-03-05T00:54:08.263Z,-1.40
2023-03-05T00:56:35.592Z,-1.40
2023-03-05T00:59:02.660Z,-1.50
2023-03-05T01:01:29.830Z,-1.50
2023-03-05T01:03:57.823Z,-1.50
2023-03-05T01:06:24.893Z,-1.50
2023-03-05T01:08:52.179Z,-1.50
2023-03-05T01:11:19.365Z,-1.50
2023-03-05T01:13:46.536Z,-1.60
2023-03-05T01:16:15.104Z,-1.60
2023-03-05T01:18:45.052Z,-1.60
2023-03-05T01:21:12.122Z,-1.60
2023-03-05T01:23:40.212Z,-1.60
2023-03-05T01:26:08.675Z,-1.60
2023-03-05T01:28:36.545Z,-1.60
2023-03-05T01:31:08.228Z,-1.60
2023-03-05T01:33:35.415Z,-1.60
2023-03-05T01:36:02.479Z,-1.70
2023-03-05T01:38:29.580Z,-1.60
2023-03-05T01:40:56.638Z,-1.70
2023-03-05T01:43:29.737Z,-1.70
2023-03-05T01:46:32.150Z,-1.70
2023-03-05T01:49:14.010Z,-1.70
2023-03-05T01:52:02.534Z,-1.70
2023-03-05T01:54:51.026Z,-1.70
2023-03-05T01:57:30.038Z,-1.70
2023-03-05T02:00:03.121Z,-1.80
2023-03-05T02:02:30.832Z,-1.80
2023-03-05T02:05:11.060Z,-1.80
2023-03-05T02:07:40.430Z,-1.80
2023-03-05T02:10:21.688Z,-1.80
2023-03-05T02:12:58.525Z,-1.80
2023-03-05T02:15:25.694Z,-1.80
2023-03-05T02:17:54.262Z,-1.80
2023-03-05T02:20:43.322Z,-1.80
2023-03-05T02:23:10.368Z,-1.80
2023-03-05T02:25:38.033Z,-1.90
2023-03-05T02:28:32.560Z,-1.90
2023-03-05T02:30:59.685Z,-1.90
2023-03-05T02:33:27.011Z,-1.90
2023-03-05T02:35:54.238Z,-1.90
2023-03-05T02:38:22.149Z,-1.90
2023-03-05T02:40:49.265Z,-1.90
2023-03-05T02:43:16.435Z,-1.90
2023-03-05T02:45:43.534Z,-1.90
2023-03-05T02:48:10.603Z,-1.90
2023-03-05T02:50:39.948Z,-2.00
2023-03-05T02:53:07.025Z,-2.00
2023-03-05T02:55:34.251Z,-2.00
2023-03-05T02:58:01.430Z,-2.00
2023-03-05T03:00:28.523Z,-2.00
2023-03-05T03:02:55.763Z,-2.00
2023-03-05T03:05:23.043Z,-2.10
2023-03-05T03:07:50.385Z,-2.00
2023-03-05T03:10:17.626Z,-2.10
2023-03-05T03:12:45.470Z,-2.10
2023-03-05T03:15:15.013Z,-2.10
2023-03-05T03:17:42.819Z,-2.10
2023-03-05T03:20:14.287Z,-2.10
2023-03-05T03:22:43.169Z,-2.10
2023-03-05T03:25:11.700Z,-2.10
2023-03-05T03:27:38.820Z,-2.10
2023-03-05T03:30:06.991Z,-2.10
2023-03-05T03:32:34.502Z,-2.10
2023-03-05T03:35:01.804Z,-2.20
2023-03-05T03:37:29.996Z,-2.20
2023-03-05T03:39:57.111Z,-2.20
2023-03-05T03:42:25.751Z,-2.20
2023-03-05T03:44:52.995Z,-2.20
2023-03-05T03:47:21.883Z,-2.30
2023-03-05T03:49:48.961Z,-2.20
2023-03-05T03:52:16.100Z,-2.20
2023-03-05T03:54:43.248Z,-2.30
2023-03-05T03:57:10.378Z,-2.30
2023-03-05T03:59:37.416Z,-2.30
2023-03-05T04:02:04.495Z,-2.20
2023-03-05T04:04:31.656Z,-2.30
2023-03-05T04:06:58.927Z,-2.30
2023-03-05T04:09:25.956Z,-2.30
2023-03-05T04:11:53.102Z,-2.40
2023-03-05T04:14:20.257Z,-2.30
2023-03-05T04:16:47.337Z,-2.30
2023-03-05T04:19:14.467Z,-2.30
2023-03-05T04:21:41.803Z,-2.30
2023-03-05T04:24:09.334Z,-2.30
2023-03-05T04:26:36.682Z,-2.30
2023-03-05T04:29:03.704Z,-2.40
2023-03-05T04:31:30.779Z,-2.40
2023-03-05T04:33:57.863Z,-2.40
2023-03-05T04:36:24.964Z,-2.40
2023-03-05T04:38:51.969Z,-2.40
2023-03-05T04:41:19.098Z,-2.40
2023-03-05T04:43:46.090Z,-2.40
2023-03-05T04:46:13.194Z,-2.40
2023-03-05T04:48:40.512Z,-2.50
2023-03-05T04:51:07.525Z,-2.40
2023-03-05T04:53:35.429Z,-2.40
2023-03-05T04:56:02.826Z,-2.40
2023-03-05T04:58:30.616Z,-2.40
2023-03-05T05:01:02.543Z,-2.40
2023-03-05T05:03:29.919Z,-2.40
2023-03-05T05:05:59.200Z,-2.40
2023-03-05T05:08:27.404Z,-2.40
2023-03-05T05:11:01.750Z,-2.40
2023-03-05T05:13:29.400Z,-2.50
2023-03-05T05:15:57.806Z,-2.40
2023-03-05T05:18:25.724Z,-2.40
2023-03-05T05:20:52.968Z,-2.40
2023-03-05T05:23:20.097Z,-2.40
2023-03-05T05:25:55.537Z,-2.40
2023-03-05T05:28:22.606Z,-2.40
2023-03-05T05:30:50.689Z,-2.40
2023-03-05T05:33:17.895Z,-2.40
2023-03-05T05:35:44.998Z,-2.40
2023-03-05T05:38:12.252Z,-2.40
2023-03-05T05:40:39.432Z,-2.50
2023-03-05T05:43:06.935Z,-2.40
2023-03-05T05:45:34.182Z,-2.40
2023-03-05T05:48:01.388Z,-2.50
2023-03-05T05:50:28.533Z,-2.40
2023-03-05T05:52:55.552Z,-2.40
2023-03-05T05:55:22.574Z,-2.40
2023-03-05T05:57:49.779Z,-2.30
2023-03-05T06:00:17.273Z,-1.70
2023-03-05T06:02:44.523Z,-1.20
2023-03-05T06:05:13.692Z,-0.70
2023-03-05T06:07:41.257Z,-0.20
2023-03-05T06:10:10.076Z,-0.30
2023-03-05T06:12:37.348Z,-0.20
2023-03-05T06:15:04.909Z,0.10
2023-03-05T06:17:32.197Z,0.20
2023-03-05T06:19:59.986Z,0.40
2023-03-05T06:22:27.238Z,0.80
2023-03-05T06:24:54.245Z,1.00
2023-03-05T06:27:21.368Z,1.00
2023-03-05T06:29:51.795Z,0.70
2023-03-05T06:32:18.915Z,1.00
2023-03-05T06:34:46.036Z,0.30
2023-03-05T06:37:13.234Z,0.30
2023-03-05T06:39:40.411Z,0.20
2023-03-05T06:42:07.602Z,0.60
2023-03-05T06:44:34.644Z,1.10
2023-03-05T06:47:02.322Z,1.30
2023-03-05T06:49:29.326Z,1.60
2023-03-05T06:51:56.524Z,1.60
2023-03-05T06:54:23.751Z,1.20
2023-03-05T06:56:50.947Z,1.50
2023-03-05T06:59:18.357Z,1.70
2023-03-05T07:01:46.012Z,0.90
2023-03-05T07:04:13.932Z,0.10
2023-03-05T07:06:44.666Z,-0.20
2023-03-05T07:09:15.270Z,0.00
2023-03-05T07:11:42.712Z,-0.10
2023-03-05T07:14:09.881Z,-0.40
2023-03-05T07:16:37.074Z,-0.60
2023-03-05T07:19:07.679Z,-0.60
2023-03-05T07:21:38.254Z,-0.50
2023-03-05T07:24:07.787Z,-0.40
2023-03-05T07:26:35.247Z,0.20
2023-03-05T07:29:02.936Z,0.00
2023-03-05T07:31:32.235Z,0.00
2023-03-05T07:34:01.516Z,0.10
2023-03-05T07:36:29.688Z,0.60
2023-03-05T07:38:57.097Z,1.80
2023-03-05T07:41:24.346Z,2.40
2023-03-05T07:43:53.241Z,2.40
2023-03-05T07:46:29.409Z,2.20
2023-03-05T07:48:56.878Z,1.50
2023-03-05T07:51:26.216Z,1.10
2023-03-05T07:53:55.456Z,0.80
2023-03-05T07:56:26.789Z,0.40
2023-03-05T07:58:53.794Z,0.20
2023-03-05T08:01:21.106Z,0.00
2023-03-05T08:03:48.430Z,0.10
2023-03-05T08:06:15.716Z,-0.10
2023-03-05T08:08:42.970Z,-0.10
2023-03-05T08:11:13.499Z,-0.10
2023-03-05T08:13:41.681Z,-0.10
2023-03-05T08:16:17.824Z,-0.30
2023-03-05T08:18:45.659Z,-0.20
2023-03-05T08:21:27.318Z,-0.20
2023-03-05T08:23:54.391Z,-0.20
2023-03-05T08:26:23.283Z,-0.30
2023-03-05T08:28:50.991Z,-0.10
2023-03-05T08:31:21.626Z,0.00
2023-03-05T08:33:54.042Z,0.10
2023-03-05T08:36:21.363Z,0.00
2023-03-05T08:38:48.705Z,-0.10
2023-03-05T08:41:17.369Z,0.10
2023-03-05T08:43:44.434Z,0.30
2023-03-05T08:46:15.377Z,0.40
2023-03-05T08:48:43.419Z,0.30
2023-03-05T08:51:17.350Z,0.30
2023-03-05T08:53:45.516Z,0.40
2023-03-05T08:56:13.995Z,0.30
2023-03-05T08:58:41.070Z,0.10
2023-03-05T09:01:08.290Z,0.20
2023-03-05T09:03:35.316Z,0.20
2023-03-05T09:06:04.743Z,0.20
2023-03-05T09:08:32.014Z,0.10
2023-03-05T09:10:59.099Z,0.10
2023-03-05T09:13:26.306Z,0.00
2023-03-05T09:16:01.482Z,0.10
2023-03-05T09:18:28.928Z,0.20
2023-03-05T09:20:56.237Z,0.20
2023-03-05T09:23:24.337Z,0.10
2023-03-05T09:25:51.669Z,0.10
2023-03-05T09:28:18.981Z,0.00
2023-03-05T09:30:46.489Z,0.10
2023-03-05T09:33:13.904Z,0.20
2023-03-05T09:35:41.276Z,0.20
2023-03-05T09:38:08.846Z,0.30
2023-03-05T09:40:52.027Z,0.60
2023-03-05T09:43:57.123Z,0.70
2023-03-05T09:46:44.051Z,0.70
2023-03-05T09:49:33.543Z,0.90
2023-03-05T09:52:14.173Z,0.80
2023-03-05T09:54:44.816Z,0.70
2023-03-05T09:57:19.966Z,0.70
2023-03-05T09:59:52.287Z,0.60
2023-03-05T10:02:32.183Z,0.60
2023-03-05T10:05:18.481Z,0.70
2023-03-05T10:07:57.787Z,0.60
2023-03-05T10:10:51.909Z,0.60
2023-03-05T10:13:30.324Z,0.60
2023-03-05T10:16:35.914Z,0.50
2023-03-05T10:19:29.743Z,0.50
2023-03-05T10:22:09.179Z,0.50
2023-03-05T10:25:00.257Z,0.40
2023-03-05T10:27:33.481Z,0.30
2023-03-05T10:30:21.882Z,0.50
2023-03-05T10:33:09.659Z,0.50
2023-03-05T10:36:11.237Z,0.50
2023-03-05T10:38:55.260Z,0.40
2023-03-05T10:41:37.929Z,0.40
2023-03-05T10:44:47.928Z,0.50
2023-03-05T10:47:47.092Z,0.50
2023-03-05T10:50:41.884Z,0.40
2023-03-05T10:53:18.970Z,0.40
2023-03-05T10:55:46.119Z,0.60
2023-03-05T10:58:14.808Z,0.70
2023-03-05T11:00:58.770Z,0.80
2023-03-05T11:03:26.239Z,0.70
2023-03-05T11:06:02.868Z,0.80
2023-03-05T11:08:37.330Z,0.90
2023-03-05T11:11:10.504Z,1.00
2023-03-05T11:14:02.704Z,0.90
2023-03-05T11:16:31.381Z,1.00
2023-03-05T11:19:18.910Z,1.00
2023-03-05T11:22:04.732Z,0.90
2023-03-05T11:24:31.796Z,1.10
2023-03-05T11:26:59.580Z,1.10
2023-03-05T11:29:32.326Z,1.10
2023-03-05T11:32:26.399Z,1.20
2023-03-05T11:34:54.887Z,1.30
2023-03-05T11:37:26.664Z,1.40
2023-03-05T11:40:25.109Z,1.50
2023-03-05T11:42:58.394Z,1.40
2023-03-05T11:45:28.059Z,1.70
2023-03-05T11:48:01.022Z,1.70
2023-03-05T11:50:33.914Z,1.70
2023-03-05T11:53:11.936Z,1.70
2023-03-05T11:55:42.219Z,1.70
2023-03-05T11:58:24.325Z,1.90
2023-03-05T12:00:51.970Z,2.00
2023-03-05T12:03:23.050Z,2.00
2023-03-05T12:06:41.301Z,2.20
2023-03-05T12:09:15.995Z,1.90
2023-03-05T12:11:43.451Z,1.90
2023-03-05T12:14:13.605Z,1.90
2023-03-05T12:16:48.671Z,2.00
2023-03-05T12:19:33.007Z,2.10
2023-03-05T12:22:00.864Z,2.10
2023-03-05T12:24:28.570Z,2.20
2023-03-05T12:26:59.561Z,2.10
2023-03-05T12:29:29.806Z,2.10
2023-03-05T12:31:58.188Z,2.00
2023-03-05T12:34:48.410Z,1.90
2023-03-05T12:37:36.010Z,2.00
2023-03-05T12:40:12.829Z,2.00
2023-03-05T12:42:45.235Z,2.00
2023-03-05T12:45:16.361Z,1.90
2023-03-05T12:47:45.195Z,1.90
2023-03-05T12:50:30.116Z,1.80
2023-03-05T12:53:00.112Z,1.60
2023-03-05T12:55:48.380Z,1.40
2023-03-05T12:58:45.286Z,1.30
2023-03-05T13:01:12.491Z,1.20
2023-03-05T13:04:16.167Z,1.20
2023-03-05T13:06:43.607Z,1.20
2023-03-05T13:09:19.465Z,1.20
2023-03-05T13:11:50.640Z,1.30
2023-03-05T13:14:40.926Z,1.30
2023-03-05T13:17:32.008Z,1.40
2023-03-05T13:20:00.622Z,1.40
2023-03-05T13:22:28.316Z,1.60
2023-03-05T13:25:25.056Z,1.70
2023-03-05T13:27:52.233Z,1.40
2023-03-05T13:30:28.369Z,1.40
2023-03-05T13:33:03.236Z,1.30
2023-03-05T13:35:34.789Z,1.20
2023-03-05T13:38:02.465Z,1.10
2023-03-05T13:40:32.104Z,0.90
2023-03-05T13:43:18.402Z,0.80
2023-03-05T13:45:55.126Z,0.80
2023-03-05T13:48:22.591Z,0.70
2023-03-05T13:50:58.543Z,0.70
2023-03-05T13:53:28.948Z,0.80
2023-03-05T13:56:03.179Z,0.80
2023-03-05T13:58:48.385Z,0.80
2023-03-05T14:01:27.095Z,0.50
2023-03-05T14:03:57.519Z,0.60
2023-03-05T14:06:28.448Z,0.80
2023-03-05T14:09:18.756Z,0.80
2023-03-05T14:12:24.674Z,0.90
2023-03-05T14:14:51.932Z,1.10
2023-03-05T14:17:44.135Z,0.90
2023-03-05T14:20:14.753Z,1.00
2023-03-05T14:22:45.197Z,1.10
2023-03-05T14:25:40.865Z,1.10
2023-03-05T14:28:29.735Z,1.00
2023-03-05T14:30:59.995Z,0.90
2023-03-05T14:33:32.875Z,0.70
2023-03-05T14:36:02.184Z,0.80
2023-03-05T14:38:34.288Z,1.00
2023-03-05T14:41:23.145Z,0.70
2023-03-05T14:43:50.385Z,0.70
2023-03-05T14:46:17.995Z,0.80
2023-03-05T14:48:45.257Z,0.80
2023-03-05T14:51:12.508Z,0.70
2023-03-05T14:53:46.975Z,0.60
2023-03-05T14:56:28.594Z,0.50
2023-03-05T14:58:57.744Z,0.50
2023-03-05T15:01:25.698Z,0.50
2023-03-05T15:03:52.864Z,0.10
2023-03-05T15:06:24.051Z,0.20
2023-03-05T15:08:53.633Z,0.40
2023-03-05T15:11:22.848Z,0.50
2023-03-05T15:13:52.996Z,0.50
2023-03-05T15:16:20.580Z,0.30
2023-03-05T15:18:50.158Z,0.30
2023-03-05T15:21:17.588Z,0.40
2023-03-05T15:23:45.391Z,0.40
2023-03-05T15:26:14.953Z,0.20
2023-03-05T15:28:43.268Z,0.10
2023-03-05T15:31:11.315Z,0.10
2023-03-05T15:33:38.630Z,0.10
2023-03-05T15:36:07.198Z,0.00
2023-03-05T15:38:37.430Z,0.00
2023-03-05T15:41:05.397Z,-0.10
2023-03-05T15:43:32.504Z,-0.10
2023-03-05T15:46:00.231Z,-0.20
2023-03-05T15:48:28.083Z,-0.10
2023-03-05T15:50:58.004Z,0.10
2023-03-05T15:53:25.349Z,0.20
2023-03-05T15:55:53.564Z,0.20
2023-03-05T15:58:21.243Z,0.30
2023-03-05T16:00:49.199Z,0.30
2023-03-05T16:03:16.789Z,0.50
2023-03-05T16:05:44.067Z,0.60
2023-03-05T16:08:11.358Z,0.70
2023-03-05T16:10:41.238Z,0.60
2023-03-05T16:13:13.079Z,0.60
2023-03-05T16:15:41.796Z,0.40
2023-03-05T16:18:13.764Z,0.40
2023-03-05T16:20:41.013Z,0.40
2023-03-05T16:23:12.757Z,0.30
2023-03-05T16:25:40.255Z,0.30
2023-03-05T16:28:07.343Z,0.20
2023-03-05T16:30:34.934Z,0.20
2023-03-05T16:33:02.188Z,0.20
2023-03-05T16:35:31.408Z,0.30
2023-03-05T16:37:59.814Z,0.40
2023-03-05T16:40:44.233Z,0.40
2023-03-05T16:43:14.899Z,0.30
2023-03-05T16:45:41.989Z,0.40
2023-03-05T16:48:12.100Z,0.30
2023-03-05T16:50:39.142Z,0.30
2023-03-05T16:53:06.258Z,0.20
2023-03-05T16:55:33.337Z,0.20
2023-03-05T16:58:00.513Z,0.20
2023-03-05T17:00:28.249Z,0.20
2023-03-05T17:03:03.111Z,0.10
2023-03-05T17:05:30.842Z,0.00
2023-03-05T17:07:59.701Z,0.10
2023-03-05T17:10:27.167Z,-0.20
2023-03-05T17:12:54.690Z,-0.30
2023-03-05T17:15:21.886Z,-0.30
2023-03-05T17:17:49.341Z,-0.30
2023-03-05T17:20:17.118Z,-0.30
2023-03-05T17:22:44.286Z,-0.40
2023-03-05T17:25:11.297Z,-0.40
2023-03-05T17:27:38.645Z,-0.70
2023-03-05T17:30:08.327Z,-1.20
2023-03-05T17:32:36.020Z,-1.30
2023-03-05T17:35:05.152Z,-1.20
2023-03-05T17:37:33.055Z,-1.20
2023-03-05T17:40:00.510Z,-1.30
2023-03-05T17:42:28.126Z,-1.50
2023-03-05T17:44:55.182Z,-1.50
2023-03-05T17:47:23.604Z,-1.80
2023-03-05T17:49:51.476Z,-1.70
2023-03-05T17:52:21.482Z,-1.80
2023-03-05T17:54:53.336Z,-1.80
2023-03-05T17:57:20.959Z,-1.60
2023-03-05T17:59:49.684Z,-1.60
2023-03-05T18:02:17.138Z,-1.60
2023-03-05T18:04:48.037Z,-1.60
2023-03-05T18:07:15.107Z,-1.50
2023-03-05T18:09:44.391Z,-1.40
2023-03-05T18:12:11.445Z,-1.50
2023-03-05T18:14:38.550Z,-1.60
2023-03-05T18:17:05.678Z,-1.60
2023-03-05T18:19:37.170Z,-1.40
2023-03-05T18:22:04.553Z,-1.40
2023-03-05T18:24:32.041Z,-1.50
2023-03-05T18:27:00.944Z,-1.50
2023-03-05T18:29:28.294Z,-1.50
2023-03-05T18:31:56.943Z,-1.60
2023-03-05T18:34:27.056Z,-1.60
2023-03-05T18:36:54.428Z,-1.60
2023-03-05T18:39:21.853Z,-1.50
2023-03-05T18:41:49.022Z,-1.50
2023-03-05T18:44:16.263Z,-1.50
2023-03-05T18:46:43.430Z,-1.60
2023-03-05T18:49:10.591Z,-1.50
2023-03-05T18:51:37.981Z,-1.50
2023-03-05T18:54:05.125Z,-1.40
2023-03-05T18:56:32.569Z,-1.30
2023-03-05T18:58:59.768Z,-1.30
2023-03-05T19:01:27.337Z,-1.40
2023-03-05T19:03:54.583Z,-1.40
2023-03-05T19:06:21.781Z,-1.30
2023-03-05T19:08:56.842Z,-1.30
2023-03-05T19:11:24.063Z,-1.50
2023-03-05T19:13:52.248Z,-1.50
2023-03-05T19:16:30.505Z,-1.50
2023-03-05T19:19:11.291Z,-1.40
2023-03-05T19:21:43.325Z,-1.60
2023-03-05T19:24:15.795Z,-1.50
2023-03-05T19:26:48.861Z,-1.50
2023-03-05T19:29:16.324Z,-1.50
2023-03-05T19:31:43.320Z,-1.40
2023-03-05T19:34:10.970Z,-1.40
2023-03-05T19:36:38.034Z,-1.50
2023-03-05T19:39:07.290Z,-1.40
2023-03-05T19:41:35.473Z,-1.40
2023-03-05T19:44:03.134Z,-1.30
2023-03-05T19:46:30.600Z,-1.40
2023-03-05T19:48:58.244Z,-1.40
2023-03-05T19:51:26.997Z,-1.40
2023-03-05T19:53:57.166Z,-1.40
2023-03-05T19:56:25.742Z,-1.40
2023-03-05T19:58:52.896Z,-1.50
2023-03-05T20:01:23.209Z,-1.60
2023-03-05T20:03:56.977Z,-1.70
2023-03-05T20:06:26.994Z,-1.70
2023-03-05T20:08:56.922Z,-1.70
2023-03-05T20:11:26.321Z,-1.70
2023-03-05T20:13:55.652Z,-1.60
2023-03-05T20:16:29.803Z,-1.80
2023-03-05T20:18:58.282Z,-1.70
2023-03-05T20:21:32.359Z,-1.70
2023-03-05T20:24:03.455Z,-1.80
2023-03-05T20:26:31.289Z,-1.70
2023-03-05T20:29:00.985Z,-1.60
2023-03-05T20:31:28.802Z,-1.60
2023-03-05T20:33:56.872Z,-1.60
2023-03-05T20:36:24.241Z,-1.60
2023-03-05T20:38:52.734Z,-1.60
2023-03-05T20:41:23.340Z,-1.70
2023-03-05T20:43:51.917Z,-1.60
2023-03-05T20:46:25.337Z,-1.60
2023-03-05T20:48:55.112Z,-1.60
2023-03-05T20:51:25.001Z,-1.70
2023-03-05T20:53:58.308Z,-1.70
2023-03-05T20:56:28.077Z,-1.70
2023-03-05T20:58:59.559Z,-1.70
2023-03-05T21:01:28.305Z,-1.80
2023-03-05T21:03:58.508Z,-1.80
2023-03-05T21:06:26.864Z,-1.70
2023-03-05T21:08:54.150Z,-1.80
2023-03-05T21:11:23.622Z,-1.80
2023-03-05T21:13:50.644Z,-1.90
2023-03-05T21:16:20.710Z,-1.80
2023-03-05T21:18:48.137Z,-1.80
2023-03-05T21:21:15.305Z,-1.80
2023-03-05T21:23:42.467Z,-1.80
2023-03-05T21:26:09.611Z,-1.80
2023-03-05T21:28:36.802Z,-1.90
2023-03-05T21:31:10.809Z,-1.90
2023-03-05T21:33:38.004Z,-2.00
2023-03-05T21:36:05.459Z,-2.00
2023-03-05T21:38:34.250Z,-2.00
2023-03-05T21:41:02.569Z,-2.00
2023-03-05T21:43:31.376Z,-2.00
2023-03-05T21:46:00.959Z,-2.10
2023-03-05T21:48:28.215Z,-2.20
2023-03-05T21:50:55.702Z,-2.20
2023-03-05T21:53:23.552Z,-2.20
2023-03-05T21:56:04.957Z,-2.20
2023-03-05T21:58:33.411Z,-2.20
2023-03-05T22:01:00.776Z,-2.30
2023-03-05T22:03:29.473Z,-2.30
2023-03-05T22:05:58.237Z,-2.30
2023-03-05T22:08:25.291Z,-2.30
2023-03-05T22:10:52.847Z,-2.40
2023-03-05T22:13:20.739Z,-2.50
2023-03-05T22:15:56.100Z,-2.50
2023-03-05T22:18:30.258Z,-2.50
2023-03-05T22:20:59.076Z,-2.50
2023-03-05T22:23:29.717Z,-2.50
2023-03-05T22:26:05.638Z,-2.60
2023-03-05T22:28:34.535Z,-2.60
2023-03-05T22:31:02.227Z,-2.50
2023-03-05T22:33:30.841Z,-2.50
2023-03-05T22:35:58.758Z,-2.50
2023-03-05T22:38:25.997Z,-2.60
2023-03-05T22:40:53.296Z,-2.60
2023-03-05T22:43:21.008Z,-2.60
2023-03-05T22:45:48.123Z,-2.60
2023-03-05T22:48:15.528Z,-2.60
2023-03-05T22:50:46.299Z,-2.60
2023-03-05T22:53:13.520Z,-2.60
2023-03-05T22:55:42.302Z,-2.70
2023-03-05T22:58:09.976Z,-2.60
2023-03-05T23:00:37.620Z,-2.70
2023-03-05T23:03:06.749Z,-2.70
2023-03-05T23:05:34.716Z,-2.70
2023-03-05T23:08:01.755Z,-2.70
2023-03-05T23:10:29.634Z,-2.70
2023-03-05T23:12:58.864Z,-2.80
2023-03-05T23:15:29.088Z,-2.70
2023-03-05T23:17:56.876Z,-2.80
2023-03-05T23:20:27.598Z,-2.90
2023-03-05T23:22:56.280Z,-2.90
2023-03-05T23:25:26.376Z,-3.00
2023-03-05T23:27:53.759Z,-3.00
2023-03-05T23:30:22.946Z,-3.00
2023-03-05T23:32:51.658Z,-3.10
2023-03-05T23:35:28.617Z,-3.10
2023-03-05T23:37:57.547Z,-3.10
2023-03-05T23:40:30.079Z,-3.10
2023-03-05T23:42:57.328Z,-3.20
2023-03-05T23:45:25.504Z,-3.20
2023-03-05T23:47:54.605Z,-3.30
2023-03-05T23:50:25.717Z,-3.20
2023-03-05T23:52:54.488Z,-3.30
2023-03-05T23:55:25.205Z,-3.10
2023-03-05T23:57:52.872Z,-3.20
